sensor_id;sensor_type;location;lat;lon;timestamp;noise_LAeq;noise_LA_min;noise_LA_max;noise_LA01;noise_LA95
41704;Laerm;861;48.808;9.006;2023-02-28T00:00:41;36.26;34.95;37.66;;
41704;Laerm;861;48.808;9.006;2023-02-28T00:03:07;36.29;34.95;37.41;;
41704;Laerm;861;48.808;9.006;2023-02-28T00:05:33;36.30;34.86;37.49;;
41704;Laerm;861;48.808;9.006;2023-02-28T00:08:00;36.27;34.79;37.52;;
41704;Laerm;861;48.808;9.006;2023-02-28T00:10:31;36.28;35.00;37.49;;
41704;Laerm;861;48.808;9.006;2023-02-28T00:13:06;36.29;35.04;37.50;;
41704;Laerm;861;48.808;9.006;2023-02-28T00:15:35;36.28;35.07;37.42;;
41704;Laerm;861;48.808;9.006;2023-02-28T00:18:04;36.27;34.90;37.53;;
41704;Laerm;861;48.808;9.006;2023-02-28T00:20:30;36.28;34.95;37.54;;
41704;Laerm;861;48.808;9.006;2023-02-28T00:22:57;36.26;34.91;37.46;;
41704;Laerm;861;48.808;9.006;2023-02-28T00:25:25;36.24;34.93;37.62;;
41704;Laerm;861;48.808;9.006;2023-02-28T00:27:52;36.24;34.90;37.46;;
41704;Laerm;861;48.808;9.006;2023-02-28T00:30:26;36.21;34.88;37.61;;
41704;Laerm;861;48.808;9.006;2023-02-28T00:32:52;36.19;34.96;37.43;;
41704;Laerm;861;48.808;9.006;2023-02-28T00:35:19;36.18;34.82;37.41;;
41704;Laerm;861;48.808;9.006;2023-02-28T00:37:45;36.17;35.05;37.38;;
41704;Laerm;861;48.808;9.006;2023-02-28T00:40:12;36.14;34.92;37.31;;
41704;Laerm;861;48.808;9.006;2023-02-28T00:42:39;36.11;34.87;37.28;;
41704;Laerm;861;48.808;9.006;2023-02-28T00:45:07;36.12;34.89;37.27;;
41704;Laerm;861;48.808;9.006;2023-02-28T00:47:34;36.08;34.78;37.34;;
41704;Laerm;861;48.808;9.006;2023-02-28T00:50:01;36.07;34.85;37.21;;
41704;Laerm;861;48.808;9.006;2023-02-28T00:52:27;36.05;34.87;37.35;;
41704;Laerm;861;48.808;9.006;2023-02-28T00:54:54;36.02;34.78;37.41;;
41704;Laerm;861;48.808;9.006;2023-02-28T00:57:20;36.00;34.74;37.28;;
41704;Laerm;861;48.808;9.006;2023-02-28T00:59:46;35.98;34.63;37.17;;
41704;Laerm;861;48.808;9.006;2023-02-28T01:02:13;35.99;34.68;37.20;;
41704;Laerm;861;48.808;9.006;2023-02-28T01:04:39;35.97;34.48;37.07;;
41704;Laerm;861;48.808;9.006;2023-02-28T01:07:05;35.93;34.39;37.09;;
41704;Laerm;861;48.808;9.006;2023-02-28T01:09:31;35.94;34.74;37.30;;
41704;Laerm;861;48.808;9.006;2023-02-28T01:11:57;35.91;34.67;37.10;;
41704;Laerm;861;48.808;9.006;2023-02-28T01:14:24;35.88;34.68;37.28;;
41704;Laerm;861;48.808;9.006;2023-02-28T01:16:50;35.89;34.68;37.65;;
41704;Laerm;861;48.808;9.006;2023-02-28T01:19:17;35.87;34.60;37.18;;
41704;Laerm;861;48.808;9.006;2023-02-28T01:21:43;35.85;34.50;37.06;;
41704;Laerm;861;48.808;9.006;2023-02-28T01:24:10;35.84;34.51;37.10;;
41704;Laerm;861;48.808;9.006;2023-02-28T01:26:36;35.82;34.55;37.03;;
41704;Laerm;861;48.808;9.006;2023-02-28T01:29:03;35.79;34.50;37.03;;
41704;Laerm;861;48.808;9.006;2023-02-28T01:31:29;35.77;34.31;37.04;;
41704;Laerm;861;48.808;9.006;2023-02-28T01:33:55;35.75;34.37;37.00;;
41704;Laerm;861;48.808;9.006;2023-02-28T01:36:25;35.72;34.26;36.83;;
41704;Laerm;861;48.808;9.006;2023-02-28T01:38:59;35.70;34.47;36.95;;
41704;Laerm;861;48.808;9.006;2023-02-28T01:41:34;35.68;34.46;36.83;;
41704;Laerm;861;48.808;9.006;2023-02-28T01:45:00;35.66;34.46;36.96;;
41704;Laerm;861;48.808;9.006;2023-02-28T01:47:43;35.65;34.16;36.95;;
41704;Laerm;861;48.808;9.006;2023-02-28T01:50:32;35.62;34.31;37.96;;
41704;Laerm;861;48.808;9.006;2023-02-28T01:53:10;35.61;34.20;36.95;;
41704;Laerm;861;48.808;9.006;2023-02-28T01:55:51;35.59;34.29;36.69;;
41704;Laerm;861;48.808;9.006;2023-02-28T01:58:20;35.58;34.16;36.86;;
41704;Laerm;861;48.808;9.006;2023-02-28T02:00:46;35.58;34.20;36.89;;
41704;Laerm;861;48.808;9.006;2023-02-28T02:03:19;35.56;34.18;36.81;;
41704;Laerm;861;48.808;9.006;2023-02-28T02:05:46;35.56;34.20;36.74;;
41704;Laerm;861;48.808;9.006;2023-02-28T02:08:25;35.55;34.16;36.86;;
41704;Laerm;861;48.808;9.006;2023-02-28T02:11:02;35.55;34.22;36.66;;
41704;Laerm;861;48.808;9.006;2023-02-28T02:14:12;35.54;34.16;36.84;;
41704;Laerm;861;48.808;9.006;2023-02-28T02:17:20;35.53;34.15;36.72;;
41704;Laerm;861;48.808;9.006;2023-02-28T02:20:32;35.53;34.12;36.80;;
41704;Laerm;861;48.808;9.006;2023-02-28T02:27:55;35.53;34.16;36.75;;
41704;Laerm;861;48.808;9.006;2023-02-28T02:31:22;35.53;34.15;36.69;;
41704;Laerm;861;48.808;9.006;2023-02-28T02:34:29;35.54;34.27;36.74;;
41704;Laerm;861;48.808;9.006;2023-02-28T02:37:51;35.55;34.29;36.75;;
41704;Laerm;861;48.808;9.006;2023-02-28T02:40:27;35.55;34.08;36.88;;
41704;Laerm;861;48.808;9.006;2023-02-28T02:43:26;35.55;34.28;36.77;;
41704;Laerm;861;48.808;9.006;2023-02-28T02:46:16;35.56;33.98;36.79;;
41704;Laerm;861;48.808;9.006;2023-02-28T02:48:49;35.57;34.26;36.68;;
41704;Laerm;861;48.808;9.006;2023-02-28T02:51:26;35.57;34.25;36.72;;
41704;Laerm;861;48.808;9.006;2023-02-28T02:54:34;35.57;33.97;36.85;;
41704;Laerm;861;48.808;9.006;2023-02-28T02:57:52;35.58;34.22;37.03;;
41704;Laerm;861;48.808;9.006;2023-02-28T03:00:35;35.58;34.24;36.73;;
41704;Laerm;861;48.808;9.006;2023-02-28T03:03:09;35.58;34.34;36.84;;
41704;Laerm;861;48.808;9.006;2023-02-28T03:05:50;35.58;34.07;36.73;;
41704;Laerm;861;48.808;9.006;2023-02-28T03:08:17;35.60;34.15;36.85;;
41704;Laerm;861;48.808;9.006;2023-02-28T03:10:51;35.58;33.99;36.86;;
41704;Laerm;861;48.808;9.006;2023-02-28T03:18:28;35.59;34.27;37.04;;
41704;Laerm;861;48.808;9.006;2023-02-28T03:21:30;35.59;34.21;36.76;;
41704;Laerm;861;48.808;9.006;2023-02-28T03:24:19;35.60;34.04;36.87;;
41704;Laerm;861;48.808;9.006;2023-02-28T03:27:09;35.59;34.31;36.80;;
41704;Laerm;861;48.808;9.006;2023-02-28T03:33:38;35.59;34.29;36.76;;
41704;Laerm;861;48.808;9.006;2023-02-28T03:36:23;35.60;34.14;36.84;;
41704;Laerm;861;48.808;9.006;2023-02-28T03:39:16;35.61;34.38;36.91;;
41704;Laerm;861;48.808;9.006;2023-02-28T03:42:15;35.60;34.08;36.97;;
41704;Laerm;861;48.808;9.006;2023-02-28T03:44:53;35.62;34.00;36.79;;
41704;Laerm;861;48.808;9.006;2023-02-28T03:47:52;35.62;34.50;36.92;;
41704;Laerm;861;48.808;9.006;2023-02-28T03:50:43;35.61;34.23;36.74;;
41704;Laerm;861;48.808;9.006;2023-02-28T03:53:35;35.62;34.28;36.75;;
41704;Laerm;861;48.808;9.006;2023-02-28T03:56:33;35.61;34.25;36.79;;
41704;Laerm;861;48.808;9.006;2023-02-28T04:00:09;35.61;34.07;36.95;;
41704;Laerm;861;48.808;9.006;2023-02-28T04:02:16;35.62;34.21;36.93;;
41704;Laerm;861;48.808;9.006;2023-02-28T04:04:44;35.62;34.19;36.84;;
41704;Laerm;861;48.808;9.006;2023-02-28T04:07:15;35.62;34.35;36.92;;
41704;Laerm;861;48.808;9.006;2023-02-28T04:09:42;35.62;34.19;36.85;;
41704;Laerm;861;48.808;9.006;2023-02-28T04:12:09;35.63;34.18;36.97;;
41704;Laerm;861;48.808;9.006;2023-02-28T04:14:35;35.63;34.22;36.76;;
41704;Laerm;861;48.808;9.006;2023-02-28T04:17:02;35.64;34.43;36.84;;
41704;Laerm;861;48.808;9.006;2023-02-28T04:19:28;35.64;34.35;36.96;;
41704;Laerm;861;48.808;9.006;2023-02-28T04:21:54;35.63;34.36;36.83;;
41704;Laerm;861;48.808;9.006;2023-02-28T04:24:27;35.63;34.40;36.93;;
41704;Laerm;861;48.808;9.006;2023-02-28T04:26:58;35.63;34.43;36.84;;
41704;Laerm;861;48.808;9.006;2023-02-28T04:29:32;35.64;34.36;36.95;;
41704;Laerm;861;48.808;9.006;2023-02-28T04:32:02;35.64;34.31;36.82;;
41704;Laerm;861;48.808;9.006;2023-02-28T04:34:32;35.65;34.28;37.02;;
41704;Laerm;861;48.808;9.006;2023-02-28T04:36:59;35.63;34.37;37.03;;
41704;Laerm;861;48.808;9.006;2023-02-28T04:39:26;35.65;34.39;37.06;;
41704;Laerm;861;48.808;9.006;2023-02-28T04:41:52;35.65;34.23;36.88;;
41704;Laerm;861;48.808;9.006;2023-02-28T04:44:18;35.66;34.37;36.85;;
41704;Laerm;861;48.808;9.006;2023-02-28T04:46:45;35.66;34.28;37.02;;
41704;Laerm;861;48.808;9.006;2023-02-28T04:49:12;35.67;34.30;36.97;;
41704;Laerm;861;48.808;9.006;2023-02-28T04:51:43;35.66;34.42;37.10;;
41704;Laerm;861;48.808;9.006;2023-02-28T04:54:10;35.66;34.29;36.93;;
41704;Laerm;861;48.808;9.006;2023-02-28T04:56:36;35.67;34.43;36.85;;
41704;Laerm;861;48.808;9.006;2023-02-28T04:59:03;35.67;34.28;36.95;;
41704;Laerm;861;48.808;9.006;2023-02-28T05:01:39;35.67;34.36;36.91;;
41704;Laerm;861;48.808;9.006;2023-02-28T05:04:15;35.67;34.23;37.10;;
41704;Laerm;861;48.808;9.006;2023-02-28T05:06:46;35.67;34.30;36.79;;
41704;Laerm;861;48.808;9.006;2023-02-28T05:09:13;35.68;34.35;37.00;;
41704;Laerm;861;48.808;9.006;2023-02-28T05:11:41;35.68;34.49;36.97;;
41704;Laerm;861;48.808;9.006;2023-02-28T05:14:24;35.68;34.41;36.94;;
41704;Laerm;861;48.808;9.006;2023-02-28T05:16:54;35.68;34.36;36.87;;
41704;Laerm;861;48.808;9.006;2023-02-28T05:19:26;35.68;34.30;36.95;;
41704;Laerm;861;48.808;9.006;2023-02-28T05:21:55;35.69;34.46;36.79;;
41704;Laerm;861;48.808;9.006;2023-02-28T05:24:21;35.69;34.49;36.85;;
41704;Laerm;861;48.808;9.006;2023-02-28T05:26:54;35.70;34.34;37.06;;
41704;Laerm;861;48.808;9.006;2023-02-28T05:29:22;35.68;34.43;36.83;;
41704;Laerm;861;48.808;9.006;2023-02-28T05:31:48;35.69;34.30;37.09;;
41704;Laerm;861;48.808;9.006;2023-02-28T05:34:14;35.69;34.42;36.87;;
41704;Laerm;861;48.808;9.006;2023-02-28T05:36:42;35.68;34.45;36.98;;
41704;Laerm;861;48.808;9.006;2023-02-28T05:39:17;35.68;34.43;36.91;;
41704;Laerm;861;48.808;9.006;2023-02-28T05:41:44;35.69;34.48;36.86;;
41704;Laerm;861;48.808;9.006;2023-02-28T05:44:11;35.70;34.27;36.94;;
41704;Laerm;861;48.808;9.006;2023-02-28T05:46:38;35.68;34.37;36.79;;
41704;Laerm;861;48.808;9.006;2023-02-28T05:49:04;35.69;34.27;36.96;;
41704;Laerm;861;48.808;9.006;2023-02-28T05:51:33;35.68;34.44;36.83;;
41704;Laerm;861;48.808;9.006;2023-02-28T05:54:03;35.68;34.49;36.75;;
41704;Laerm;861;48.808;9.006;2023-02-28T05:56:29;35.69;34.04;37.15;;
41704;Laerm;861;48.808;9.006;2023-02-28T05:58:55;35.69;34.35;36.86;;
41704;Laerm;861;48.808;9.006;2023-02-28T06:01:42;35.69;34.46;36.98;;
41704;Laerm;861;48.808;9.006;2023-02-28T06:04:19;35.69;34.29;36.91;;
41704;Laerm;861;48.808;9.006;2023-02-28T06:06:51;35.69;34.38;37.00;;
41704;Laerm;861;48.808;9.006;2023-02-28T06:09:19;35.69;34.45;36.83;;
41704;Laerm;861;48.808;9.006;2023-02-28T06:12:24;35.69;34.49;36.98;;
41704;Laerm;861;48.808;9.006;2023-02-28T06:15:37;35.69;34.28;37.03;;
41704;Laerm;861;48.808;9.006;2023-02-28T06:18:35;35.69;34.27;37.04;;
41704;Laerm;861;48.808;9.006;2023-02-28T06:22:04;35.70;34.41;36.86;;
41704;Laerm;861;48.808;9.006;2023-02-28T06:24:54;35.70;34.51;36.87;;
41704;Laerm;861;48.808;9.006;2023-02-28T06:27:38;35.70;34.53;36.83;;
41704;Laerm;861;48.808;9.006;2023-02-28T06:30:15;35.69;34.27;36.95;;
41704;Laerm;861;48.808;9.006;2023-02-28T06:33:20;35.70;34.37;36.91;;
41704;Laerm;861;48.808;9.006;2023-02-28T06:36:22;35.69;34.21;36.97;;
41704;Laerm;861;48.808;9.006;2023-02-28T06:39:00;35.69;34.20;36.79;;
41704;Laerm;861;48.808;9.006;2023-02-28T06:42:14;35.70;34.23;36.92;;
41704;Laerm;861;48.808;9.006;2023-02-28T06:45:26;35.70;34.40;36.90;;
41704;Laerm;861;48.808;9.006;2023-02-28T06:48:28;35.70;34.47;36.87;;
41704;Laerm;861;48.808;9.006;2023-02-28T06:51:18;35.70;34.47;36.90;;
41704;Laerm;861;48.808;9.006;2023-02-28T06:53:46;35.70;34.52;36.78;;
41704;Laerm;861;48.808;9.006;2023-02-28T06:56:17;35.71;34.48;36.93;;
41704;Laerm;861;48.808;9.006;2023-02-28T06:58:50;35.71;34.38;36.87;;
41704;Laerm;861;48.808;9.006;2023-02-28T07:01:18;35.71;34.46;37.39;;
41704;Laerm;861;48.808;9.006;2023-02-28T07:03:46;35.70;34.36;37.05;;
41704;Laerm;861;48.808;9.006;2023-02-28T07:06:12;35.71;34.26;36.99;;
41704;Laerm;861;48.808;9.006;2023-02-28T07:08:39;35.70;34.49;36.96;;
41704;Laerm;861;48.808;9.006;2023-02-28T07:11:07;35.73;34.60;37.06;;
41704;Laerm;861;48.808;9.006;2023-02-28T07:13:36;35.71;34.40;36.92;;
41704;Laerm;861;48.808;9.006;2023-02-28T07:16:11;35.73;34.33;36.97;;
41704;Laerm;861;48.808;9.006;2023-02-28T07:18:38;35.74;34.39;36.91;;
41704;Laerm;861;48.808;9.006;2023-02-28T07:21:09;35.74;34.48;37.12;;
41704;Laerm;861;48.808;9.006;2023-02-28T07:23:38;35.74;34.50;36.91;;
41704;Laerm;861;48.808;9.006;2023-02-28T07:26:16;35.75;34.39;37.06;;
41704;Laerm;861;48.808;9.006;2023-02-28T07:28:47;35.77;34.50;36.91;;
41704;Laerm;861;48.808;9.006;2023-02-28T07:31:16;35.76;34.50;36.86;;
41704;Laerm;861;48.808;9.006;2023-02-28T07:33:44;35.78;34.26;37.14;;
41704;Laerm;861;48.808;9.006;2023-02-28T07:36:17;35.78;34.40;36.99;;
41704;Laerm;861;48.808;9.006;2023-02-28T07:38:48;35.77;34.50;36.92;;
41704;Laerm;861;48.808;9.006;2023-02-28T07:41:22;35.78;34.38;37.05;;
41704;Laerm;861;48.808;9.006;2023-02-28T07:43:54;35.78;34.53;36.94;;
41704;Laerm;861;48.808;9.006;2023-02-28T07:46:21;35.78;34.57;37.10;;
41704;Laerm;861;48.808;9.006;2023-02-28T07:48:50;35.78;34.66;36.95;;
41704;Laerm;861;48.808;9.006;2023-02-28T07:51:22;35.79;34.33;36.98;;
41704;Laerm;861;48.808;9.006;2023-02-28T07:53:49;35.80;34.36;36.87;;
41704;Laerm;861;48.808;9.006;2023-02-28T07:56:18;35.79;34.62;36.97;;
41704;Laerm;861;48.808;9.006;2023-02-28T07:58:44;35.79;34.50;36.92;;
41704;Laerm;861;48.808;9.006;2023-02-28T08:01:12;35.80;34.50;36.98;;
41704;Laerm;861;48.808;9.006;2023-02-28T08:03:40;35.81;34.64;37.07;;
41704;Laerm;861;48.808;9.006;2023-02-28T08:06:18;35.81;34.45;37.12;;
41704;Laerm;861;48.808;9.006;2023-02-28T08:08:52;35.81;34.55;36.96;;
41704;Laerm;861;48.808;9.006;2023-02-28T08:11:55;35.81;34.37;37.27;;
41704;Laerm;861;48.808;9.006;2023-02-28T08:14:30;35.80;34.47;36.94;;
41704;Laerm;861;48.808;9.006;2023-02-28T08:17:27;35.82;34.49;37.08;;
41704;Laerm;861;48.808;9.006;2023-02-28T08:20:20;35.81;34.44;37.00;;
41704;Laerm;861;48.808;9.006;2023-02-28T08:23:18;35.83;34.40;36.99;;
41704;Laerm;861;48.808;9.006;2023-02-28T08:28:46;35.83;34.57;37.17;;
41704;Laerm;861;48.808;9.006;2023-02-28T08:31:35;35.85;34.52;36.94;;
41704;Laerm;861;48.808;9.006;2023-02-28T08:34:15;35.85;34.75;37.10;;
41704;Laerm;861;48.808;9.006;2023-02-28T08:36:47;35.87;34.40;37.03;;
41704;Laerm;861;48.808;9.006;2023-02-28T08:39:21;35.87;34.52;37.11;;
41704;Laerm;861;48.808;9.006;2023-02-28T08:42:00;35.89;34.58;37.16;;
41704;Laerm;861;48.808;9.006;2023-02-28T08:44:35;35.89;34.52;37.22;;
41704;Laerm;861;48.808;9.006;2023-02-28T08:47:07;35.89;34.65;37.04;;
41704;Laerm;861;48.808;9.006;2023-02-28T08:49:39;35.90;34.62;37.15;;
41704;Laerm;861;48.808;9.006;2023-02-28T08:52:17;35.91;34.44;37.18;;
41704;Laerm;861;48.808;9.006;2023-02-28T08:54:52;35.90;34.61;37.10;;
41704;Laerm;861;48.808;9.006;2023-02-28T08:57:35;35.92;34.66;37.29;;
41704;Laerm;861;48.808;9.006;2023-02-28T09:00:36;35.92;34.54;37.16;;
41704;Laerm;861;48.808;9.006;2023-02-28T09:03:57;35.92;34.65;37.19;;
41704;Laerm;861;48.808;9.006;2023-02-28T09:06:28;35.93;34.57;37.28;;
41704;Laerm;861;48.808;9.006;2023-02-28T09:08:58;35.94;34.60;37.06;;
41704;Laerm;861;48.808;9.006;2023-02-28T09:11:26;35.95;34.69;37.30;;
41704;Laerm;861;48.808;9.006;2023-02-28T09:13:52;35.96;34.66;37.22;;
41704;Laerm;861;48.808;9.006;2023-02-28T09:16:19;35.95;34.60;37.37;;
41704;Laerm;861;48.808;9.006;2023-02-28T09:18:45;35.97;34.45;37.25;;
41704;Laerm;861;48.808;9.006;2023-02-28T09:21:18;35.98;34.75;37.39;;
41704;Laerm;861;48.808;9.006;2023-02-28T09:23:49;35.99;34.64;37.18;;
41704;Laerm;861;48.808;9.006;2023-02-28T09:26:22;36.00;34.79;37.24;;
41704;Laerm;861;48.808;9.006;2023-02-28T09:28:53;36.00;34.45;37.06;;
41704;Laerm;861;48.808;9.006;2023-02-28T09:31:28;36.00;34.88;37.24;;
41704;Laerm;861;48.808;9.006;2023-02-28T09:33:57;36.01;34.70;37.22;;
41704;Laerm;861;48.808;9.006;2023-02-28T09:36:28;36.02;34.70;37.22;;
41704;Laerm;861;48.808;9.006;2023-02-28T09:38:55;36.04;34.73;37.82;;
41704;Laerm;861;48.808;9.006;2023-02-28T09:41:38;36.03;34.73;37.28;;
41704;Laerm;861;48.808;9.006;2023-02-28T09:47:45;36.06;34.78;37.42;;
41704;Laerm;861;48.808;9.006;2023-02-28T09:50:31;36.06;34.80;37.28;;
41704;Laerm;861;48.808;9.006;2023-02-28T09:53:13;36.07;34.84;37.56;;
41704;Laerm;861;48.808;9.006;2023-02-28T09:55:58;36.07;34.71;37.32;;
41704;Laerm;861;48.808;9.006;2023-02-28T09:58:54;36.07;34.71;37.36;;
41704;Laerm;861;48.808;9.006;2023-02-28T10:01:52;36.10;34.66;37.35;;
41704;Laerm;861;48.808;9.006;2023-02-28T10:05:09;36.12;34.75;37.44;;
41704;Laerm;861;48.808;9.006;2023-02-28T10:10:50;36.18;34.91;37.34;;
41704;Laerm;861;48.808;9.006;2023-02-28T10:14:06;36.24;34.87;37.38;;
41704;Laerm;861;48.808;9.006;2023-02-28T10:20:05;36.28;35.05;37.62;;
41704;Laerm;861;48.808;9.006;2023-02-28T10:23:14;36.32;35.13;37.56;;
41704;Laerm;861;48.808;9.006;2023-02-28T10:25:58;36.34;34.83;37.58;;
41704;Laerm;861;48.808;9.006;2023-02-28T10:28:29;36.35;35.14;37.83;;
41704;Laerm;861;48.808;9.006;2023-02-28T10:31:20;36.37;35.08;37.57;;
41704;Laerm;861;48.808;9.006;2023-02-28T10:33:47;36.82;35.06;56.60;;
41704;Laerm;861;48.808;9.006;2023-02-28T10:36:20;36.39;35.00;37.59;;
41704;Laerm;861;48.808;9.006;2023-02-28T10:38:48;36.40;34.87;37.68;;
41704;Laerm;861;48.808;9.006;2023-02-28T10:41:43;36.42;35.17;37.95;;
41704;Laerm;861;48.808;9.006;2023-02-28T10:44:23;36.45;35.26;37.70;;
41704;Laerm;861;48.808;9.006;2023-02-28T10:46:51;36.48;35.24;40.19;;
41704;Laerm;861;48.808;9.006;2023-02-28T10:49:31;36.54;35.20;41.88;;
41704;Laerm;861;48.808;9.006;2023-02-28T10:52:01;36.54;35.20;37.78;;
41704;Laerm;861;48.808;9.006;2023-02-28T10:54:36;36.57;35.30;37.80;;
41704;Laerm;861;48.808;9.006;2023-02-28T10:57:24;36.56;35.15;37.93;;
41704;Laerm;861;48.808;9.006;2023-02-28T11:00:35;36.55;35.24;37.95;;
41704;Laerm;861;48.808;9.006;2023-02-28T11:03:34;36.54;35.22;38.05;;
41704;Laerm;861;48.808;9.006;2023-02-28T11:06:21;36.53;35.20;37.78;;
41704;Laerm;861;48.808;9.006;2023-02-28T11:08:58;36.54;35.20;38.50;;
41704;Laerm;861;48.808;9.006;2023-02-28T11:11:40;36.62;35.42;37.75;;
41704;Laerm;861;48.808;9.006;2023-02-28T11:14:29;37.21;35.44;64.22;;
41704;Laerm;861;48.808;9.006;2023-02-28T11:17:20;36.75;35.46;37.91;;
41704;Laerm;861;48.808;9.006;2023-02-28T11:20:04;36.68;35.32;38.06;;
41704;Laerm;861;48.808;9.006;2023-02-28T11:22:44;36.67;35.36;37.84;;
41704;Laerm;861;48.808;9.006;2023-02-28T11:25:36;36.65;35.14;37.76;;
41704;Laerm;861;48.808;9.006;2023-02-28T11:33:52;36.79;35.45;38.14;;
41704;Laerm;861;48.808;9.006;2023-02-28T11:36:30;36.68;35.39;37.93;;
41704;Laerm;861;48.808;9.006;2023-02-28T11:39:10;36.60;35.07;37.72;;
41704;Laerm;861;48.808;9.006;2023-02-28T11:46:02;36.62;35.36;38.13;;
41704;Laerm;861;48.808;9.006;2023-02-28T11:48:52;36.63;35.35;38.21;;
41704;Laerm;861;48.808;9.006;2023-02-28T11:51:59;36.64;35.41;37.94;;
41704;Laerm;861;48.808;9.006;2023-02-28T11:55:05;36.79;35.42;38.13;;
41704;Laerm;861;48.808;9.006;2023-02-28T12:02:14;36.94;35.34;38.32;;
41704;Laerm;861;48.808;9.006;2023-02-28T12:05:19;36.86;35.53;38.24;;
41704;Laerm;861;48.808;9.006;2023-02-28T12:24:43;36.66;35.22;38.04;;
41704;Laerm;861;48.808;9.006;2023-02-28T12:27:25;36.78;35.48;40.20;;
41704;Laerm;861;48.808;9.006;2023-02-28T12:30:32;36.74;35.18;38.29;;
41704;Laerm;861;48.808;9.006;2023-02-28T12:33:22;36.72;35.26;37.93;;
41704;Laerm;861;48.808;9.006;2023-02-28T12:35:59;36.71;35.43;38.15;;
41704;Laerm;861;48.808;9.006;2023-02-28T12:38:48;36.68;35.35;38.14;;
41704;Laerm;861;48.808;9.006;2023-02-28T12:42:19;36.52;34.97;37.93;;
41704;Laerm;861;48.808;9.006;2023-02-28T12:45:02;36.54;34.84;37.73;;
41704;Laerm;861;48.808;9.006;2023-02-28T12:47:30;36.71;35.28;38.10;;
41704;Laerm;861;48.808;9.006;2023-02-28T12:50:08;36.57;35.27;37.84;;
41704;Laerm;861;48.808;9.006;2023-02-28T12:53:14;36.66;35.34;38.12;;
41704;Laerm;861;48.808;9.006;2023-02-28T13:05:59;36.69;35.19;39.61;;
41704;Laerm;861;48.808;9.006;2023-02-28T13:09:13;36.61;35.09;37.93;;
41704;Laerm;861;48.808;9.006;2023-02-28T13:11:57;36.63;35.12;38.47;;
41704;Laerm;861;48.808;9.006;2023-02-28T13:19:56;36.63;35.18;38.14;;
41704;Laerm;861;48.808;9.006;2023-02-28T13:25:02;36.53;35.20;39.17;;
41704;Laerm;861;48.808;9.006;2023-02-28T13:27:40;36.49;35.02;38.30;;
41704;Laerm;861;48.808;9.006;2023-02-28T13:36:32;36.45;34.99;37.95;;
41704;Laerm;861;48.808;9.006;2023-02-28T13:39:54;36.46;35.15;44.16;;
41704;Laerm;861;48.808;9.006;2023-02-28T13:42:47;36.28;34.82;37.80;;
41704;Laerm;861;48.808;9.006;2023-02-28T13:45:28;36.32;35.11;38.35;;
41704;Laerm;861;48.808;9.006;2023-02-28T13:48:04;36.34;35.01;37.93;;
41704;Laerm;861;48.808;9.006;2023-02-28T13:50:43;36.37;34.39;37.77;;
41704;Laerm;861;48.808;9.006;2023-02-28T13:56:17;36.34;34.77;37.84;;
41704;Laerm;861;48.808;9.006;2023-02-28T13:59:35;36.10;34.44;37.82;;
41704;Laerm;861;48.808;9.006;2023-02-28T14:05:44;36.07;34.60;37.58;;
41704;Laerm;861;48.808;9.006;2023-02-28T14:08:22;36.11;34.72;37.41;;
41704;Laerm;861;48.808;9.006;2023-02-28T14:11:08;36.19;34.81;38.57;;
41704;Laerm;861;48.808;9.006;2023-02-28T14:13:49;36.25;34.95;37.61;;
41704;Laerm;861;48.808;9.006;2023-02-28T14:16:25;36.29;34.82;38.10;;
41704;Laerm;861;48.808;9.006;2023-02-28T14:19:23;36.11;34.71;37.52;;
41704;Laerm;861;48.808;9.006;2023-02-28T14:23:02;36.15;34.81;37.63;;
41704;Laerm;861;48.808;9.006;2023-02-28T14:26:00;36.03;34.80;41.99;;
41704;Laerm;861;48.808;9.006;2023-02-28T14:29:47;35.95;34.45;38.50;;
41704;Laerm;861;48.808;9.006;2023-02-28T14:33:18;35.95;34.44;48.44;;
41704;Laerm;861;48.808;9.006;2023-02-28T14:36:26;35.91;34.49;37.51;;
41704;Laerm;861;48.808;9.006;2023-02-28T14:39:14;36.00;34.66;37.43;;
41704;Laerm;861;48.808;9.006;2023-02-28T14:41:46;36.05;34.72;37.30;;
41704;Laerm;861;48.808;9.006;2023-02-28T14:44:27;36.01;34.48;37.39;;
41704;Laerm;861;48.808;9.006;2023-02-28T14:47:00;36.00;34.61;37.76;;
41704;Laerm;861;48.808;9.006;2023-02-28T14:49:44;35.97;34.65;38.51;;
41704;Laerm;861;48.808;9.006;2023-02-28T14:52:33;35.94;34.57;39.22;;
41704;Laerm;861;48.808;9.006;2023-02-28T14:55:16;35.92;34.56;37.23;;
41704;Laerm;861;48.808;9.006;2023-02-28T14:58:02;35.94;34.54;37.16;;
41704;Laerm;861;48.808;9.006;2023-02-28T15:00:46;35.96;34.74;37.41;;
41704;Laerm;861;48.808;9.006;2023-02-28T15:03:35;35.97;34.04;37.89;;
41704;Laerm;861;48.808;9.006;2023-02-28T15:06:17;35.96;34.51;37.19;;
41704;Laerm;861;48.808;9.006;2023-02-28T15:08:45;35.96;34.66;37.16;;
41704;Laerm;861;48.808;9.006;2023-02-28T15:11:19;36.02;34.66;37.27;;
41704;Laerm;861;48.808;9.006;2023-02-28T15:13:57;36.18;34.53;45.35;;
41704;Laerm;861;48.808;9.006;2023-02-28T15:16:39;36.15;34.69;43.17;;
41704;Laerm;861;48.808;9.006;2023-02-28T15:19:34;36.01;34.59;37.83;;
41704;Laerm;861;48.808;9.006;2023-02-28T15:22:28;35.95;34.34;37.23;;
41704;Laerm;861;48.808;9.006;2023-02-28T15:24:58;36.03;34.71;49.79;;
41704;Laerm;861;48.808;9.006;2023-02-28T15:27:33;35.88;34.52;37.19;;
41704;Laerm;861;48.808;9.006;2023-02-28T15:30:26;35.83;34.25;37.20;;
41704;Laerm;861;48.808;9.006;2023-02-28T15:33:18;35.84;34.42;37.37;;
41704;Laerm;861;48.808;9.006;2023-02-28T15:35:46;35.81;34.41;37.15;;
41704;Laerm;861;48.808;9.006;2023-02-28T15:38:26;35.80;34.37;37.05;;
41704;Laerm;861;48.808;9.006;2023-02-28T15:40:58;35.79;34.39;37.29;;
41704;Laerm;861;48.808;9.006;2023-02-28T15:43:34;35.80;34.29;37.00;;
41704;Laerm;861;48.808;9.006;2023-02-28T15:46:10;35.77;34.37;37.42;;
41704;Laerm;861;48.808;9.006;2023-02-28T15:48:56;35.66;34.31;36.93;;
41704;Laerm;861;48.808;9.006;2023-02-28T15:51:37;35.73;33.82;37.19;;
41704;Laerm;861;48.808;9.006;2023-02-28T15:54:24;35.68;34.29;36.86;;
41704;Laerm;861;48.808;9.006;2023-02-28T15:57:03;35.62;34.38;38.08;;
41704;Laerm;861;48.808;9.006;2023-02-28T15:59:32;35.62;34.16;36.74;;
41704;Laerm;861;48.808;9.006;2023-02-28T16:02:21;35.58;34.17;36.87;;
41704;Laerm;861;48.808;9.006;2023-02-28T16:05:25;35.56;34.02;36.96;;
41704;Laerm;861;48.808;9.006;2023-02-28T16:08:17;35.50;34.05;36.76;;
41704;Laerm;861;48.808;9.006;2023-02-28T16:10:44;35.43;34.00;36.62;;
41704;Laerm;861;48.808;9.006;2023-02-28T16:13:13;35.38;34.08;36.75;;
41704;Laerm;861;48.808;9.006;2023-02-28T16:15:44;35.37;34.15;36.75;;
41704;Laerm;861;48.808;9.006;2023-02-28T16:18:13;35.35;34.09;36.49;;
41704;Laerm;861;48.808;9.006;2023-02-28T16:20:40;35.33;33.91;36.67;;
41704;Laerm;861;48.808;9.006;2023-02-28T16:23:07;35.29;33.73;36.44;;
41704;Laerm;861;48.808;9.006;2023-02-28T16:25:41;35.29;33.86;36.60;;
41704;Laerm;861;48.808;9.006;2023-02-28T16:28:37;35.29;34.02;36.62;;
41704;Laerm;861;48.808;9.006;2023-02-28T16:31:07;35.36;34.00;36.72;;
41704;Laerm;861;48.808;9.006;2023-02-28T16:33:34;35.37;33.95;36.83;;
41704;Laerm;861;48.808;9.006;2023-02-28T16:36:02;35.35;33.95;36.48;;
41704;Laerm;861;48.808;9.006;2023-02-28T16:38:28;35.36;33.96;36.84;;
41704;Laerm;861;48.808;9.006;2023-02-28T16:41:00;35.39;34.02;36.92;;
41704;Laerm;861;48.808;9.006;2023-02-28T16:43:28;35.41;33.92;37.02;;
41704;Laerm;861;48.808;9.006;2023-02-28T16:45:58;35.46;34.05;36.82;;
41704;Laerm;861;48.808;9.006;2023-02-28T16:48:25;35.50;34.24;36.76;;